Time;durP1;ratioP1;P1;durP2;ratioP2;P2;SDS_P1;SDS_P2;PMS_P1;PMS_P2;Temp;Humidity;BMP_temperature;BMP_pressure;BME280_temperature;BME280_humidity;BME280_pressure;Samples;Min_cycle;Max_cycle;Signal;HPM_P1;HPM_P2
2021/09/27 00:01:00;;;;;;;19.73;15.80;;;18.60;99.90;;;;;;5065747;28;20066;-67
2021/09/27 00:03:27;;;;;;;20.27;14.90;;;18.50;99.90;;;;;;5065487;28;20107;-67
2021/09/27 00:05:54;;;;;;;19.08;15.13;;;18.50;99.90;;;;;;5064933;28;20028;-65
2021/09/27 00:08:20;;;;;;;20.13;15.48;;;18.60;99.90;;;;;;5066532;28;20513;-66
2021/09/27 00:11:20;;;;;;;19.80;15.85;;;18.60;99.90;;;;;;5066176;28;20025;-67
2021/09/27 00:13:49;;;;;;;21.25;17.00;;;18.60;99.90;;;;;;5051446;28;20467;-66
2021/09/27 00:16:16;;;;;;;20.48;15.90;;;18.50;99.90;;;;;;5063203;28;20523;-66
2021/09/27 00:18:42;;;;;;;20.40;15.60;;;18.50;99.90;;;;;;5067609;28;20028;-66
2021/09/27 00:21:13;;;;;;;20.58;15.38;;;18.50;99.90;;;;;;5061567;28;20042;-66
2021/09/27 00:23:39;;;;;;;21.08;16.27;;;18.50;99.90;;;;;;5063551;28;20028;-67
2021/09/27 00:26:06;;;;;;;21.30;15.88;;;18.50;99.90;;;;;;5063924;28;20032;-67
2021/09/27 00:28:33;;;;;;;20.23;15.52;;;18.60;99.90;;;;;;5063397;28;20470;-67
2021/09/27 00:30:59;;;;;;;17.25;14.98;;;18.50;99.90;;;;;;5064800;28;20382;-67
2021/09/27 00:33:26;;;;;;;18.40;14.02;;;18.50;99.90;;;;;;5066017;28;20038;-67
2021/09/27 00:35:53;;;;;;;20.42;15.55;;;18.60;99.90;;;;;;5064314;28;20042;-67
2021/09/27 00:38:20;;;;;;;19.02;16.15;;;18.50;99.90;;;;;;5065665;28;20491;-67
2021/09/27 00:40:50;;;;;;;22.30;17.67;;;18.50;99.90;;;;;;5065612;28;20029;-67
2021/09/27 00:43:17;;;;;;;21.03;16.33;;;18.50;99.90;;;;;;5064223;28;20033;-66
2021/09/27 00:45:46;;;;;;;19.80;15.85;;;18.50;99.90;;;;;;5065332;28;20032;-67
2021/09/27 00:48:13;;;;;;;19.05;15.70;;;18.50;99.90;;;;;;5063635;28;20047;-66
2021/09/27 00:50:42;;;;;;;20.88;16.08;;;18.50;99.90;;;;;;5065137;28;20052;-66
2021/09/27 00:53:22;;;;;;;21.20;15.20;;;18.50;99.90;;;;;;5065084;28;20043;-67
2021/09/27 00:55:49;;;;;;;18.77;15.30;;;18.50;99.90;;;;;;5065046;28;20033;-67
2021/09/27 00:58:16;;;;;;;21.15;15.82;;;18.50;99.90;;;;;;5064112;28;20017;-66
2021/09/27 01:00:42;;;;;;;21.70;16.02;;;18.50;99.90;;;;;;5065710;28;20482;-67
2021/09/27 01:03:08;;;;;;;19.08;15.68;;;18.50;99.90;;;;;;5064305;28;20033;-67
2021/09/27 01:05:38;;;;;;;20.65;14.55;;;18.50;99.90;;;;;;5066352;28;20043;-67
2021/09/27 01:08:21;;;;;;;17.38;14.15;;;18.60;99.90;;;;;;5059203;28;20029;-66
2021/09/27 01:11:02;;;;;;;16.25;14.10;;;18.50;99.90;;;;;;5059879;28;20069;-66
2021/09/27 01:13:39;;;;;;;22.13;14.77;;;18.50;99.90;;;;;;5065053;28;20720;-66
2021/09/27 01:16:24;;;;;;;19.50;16.48;;;18.50;99.90;;;;;;5063959;28;20067;-67
2021/09/27 01:19:03;;;;;;;18.77;15.00;;;18.60;99.90;;;;;;5070024;28;20033;-67
2021/09/27 01:21:42;;;;;;;17.42;15.25;;;18.60;99.90;;;;;;5064468;28;20041;-66
2021/09/27 01:24:55;;;;;;;21.58;16.55;;;18.60;99.90;;;;;;5063737;28;20371;-67
2021/09/27 01:27:57;;;;;;;20.98;14.48;;;18.50;99.90;;;;;;5064289;28;20039;-67
2021/09/27 01:30:47;;;;;;;19.48;16.23;;;18.50;99.90;;;;;;5063875;28;20048;-67
2021/09/27 01:33:33;;;;;;;20.48;16.10;;;18.50;99.90;;;;;;5062382;28;20462;-68
2021/09/27 01:36:20;;;;;;;18.30;14.50;;;18.50;99.90;;;;;;5062549;28;20086;-68
2021/09/27 01:39:08;;;;;;;18.05;15.48;;;18.50;99.90;;;;;;5062361;28;20067;-67
2021/09/27 01:41:44;;;;;;;18.55;15.07;;;18.60;99.90;;;;;;5067198;28;20052;-68
2021/09/27 01:44:27;;;;;;;17.83;14.65;;;18.50;99.90;;;;;;5066342;28;20036;-67
2021/09/27 01:46:59;;;;;;;19.65;15.18;;;18.60;99.90;;;;;;5064912;28;20047;-68
2021/09/27 01:49:34;;;;;;;17.55;15.15;;;18.60;99.90;;;;;;5063161;28;20127;-67
2021/09/27 01:52:12;;;;;;;17.95;13.93;;;18.60;99.90;;;;;;5065509;28;20047;-67
2021/09/27 01:54:47;;;;;;;15.77;14.07;;;18.60;99.90;;;;;;5067070;28;20052;-67
2021/09/27 01:57:58;;;;;;;20.05;15.20;;;18.50;99.90;;;;;;5067378;28;20024;-67
2021/09/27 02:00:32;;;;;;;18.23;15.68;;;18.60;99.90;;;;;;5046350;28;20050;-67
2021/09/27 02:03:37;;;;;;;19.88;15.98;;;18.50;99.90;;;;;;5065442;28;20078;-67
2021/09/27 02:06:13;;;;;;;18.08;14.95;;;18.50;99.90;;;;;;5046662;28;20132;-68
2021/09/27 02:09:01;;;;;;;16.67;14.88;;;18.50;99.90;;;;;;5059940;28;20040;-66
2021/09/27 02:11:30;;;;;;;19.77;16.20;;;18.50;99.90;;;;;;5067677;28;20487;-67
2021/09/27 02:14:15;;;;;;;30.48;16.10;;;18.50;99.90;;;;;;5066550;28;20363;-68
2021/09/27 02:16:52;;;;;;;20.85;16.25;;;18.50;99.90;;;;;;5068861;28;20024;-68
2021/09/27 02:19:43;;;;;;;19.20;15.43;;;18.40;99.90;;;;;;5068704;28;20120;-67
2021/09/27 02:22:21;;;;;;;18.75;16.27;;;18.40;99.90;;;;;;5066805;28;20052;-65
2021/09/27 02:25:10;;;;;;;20.98;16.88;;;18.40;99.90;;;;;;5066070;28;20040;-66
2021/09/27 02:27:36;;;;;;;20.80;16.50;;;18.40;99.90;;;;;;5063171;28;20036;-66
2021/09/27 02:30:04;;;;;;;21.75;17.45;;;18.40;99.90;;;;;;5068538;28;20082;-67
2021/09/27 02:32:50;;;;;;;19.60;16.25;;;18.40;99.90;;;;;;5063642;28;20025;-67
2021/09/27 02:35:42;;;;;;;18.70;16.60;;;18.40;99.90;;;;;;5065208;28;20504;-67
2021/09/27 02:38:45;;;;;;;19.55;17.52;;;18.40;99.90;;;;;;5066468;28;20035;-67
2021/09/27 02:41:35;;;;;;;24.10;18.10;;;18.40;99.90;;;;;;5040066;28;20167;-67
2021/09/27 02:44:02;;;;;;;21.88;17.52;;;18.40;99.90;;;;;;5063456;28;20127;-67
2021/09/27 02:46:29;;;;;;;21.58;18.38;;;18.40;99.90;;;;;;5067291;28;20100;-66
2021/09/27 02:48:57;;;;;;;21.38;17.83;;;18.40;99.90;;;;;;5065560;28;20024;-68
2021/09/27 02:51:25;;;;;;;23.55;17.90;;;18.30;99.90;;;;;;5066399;28;20599;-68
2021/09/27 02:53:51;;;;;;;21.65;18.08;;;18.30;99.90;;;;;;5065050;28;20036;-66
2021/09/27 02:56:29;;;;;;;23.98;17.65;;;18.30;99.90;;;;;;5069022;28;20029;-68
2021/09/27 02:59:16;;;;;;;19.52;16.52;;;18.30;99.90;;;;;;5067528;28;20078;-67
2021/09/27 03:01:49;;;;;;;20.67;17.42;;;18.30;99.90;;;;;;5066889;28;20036;-68
2021/09/27 03:04:19;;;;;;;21.98;18.08;;;18.30;99.90;;;;;;5063841;28;20035;-68
2021/09/27 03:07:01;;;;;;;20.83;17.42;;;18.30;99.90;;;;;;5066568;28;20055;-67
2021/09/27 03:09:45;;;;;;;22.85;18.77;;;18.30;99.90;;;;;;5051277;28;20032;-66
2021/09/27 03:12:48;;;;;;;22.65;18.67;;;18.30;99.90;;;;;;5067861;28;20150;-67
2021/09/27 03:15:19;;;;;;;24.90;20.48;;;18.30;99.90;;;;;;5067621;28;20029;-67
2021/09/27 03:18:14;;;;;;;26.55;21.40;;;18.30;99.90;;;;;;5054299;28;20044;-67
2021/09/27 03:21:08;;;;;;;27.77;20.77;;;18.40;99.90;;;;;;5054254;28;20032;-67
2021/09/27 03:23:45;;;;;;;25.35;21.00;;;18.30;99.90;;;;;;5066403;28;20027;-67
2021/09/27 03:26:26;;;;;;;22.77;20.05;;;18.30;99.90;;;;;;5064872;28;20471;-67
2021/09/27 03:28:51;;;;;;;;;;;18.40;99.90;;;;;;5066931;28;20111;-68
2021/09/27 03:31:48;;;;;;;24.75;20.33;;;18.40;99.90;;;;;;5066732;28;20011;-66
2021/09/27 03:34:26;;;;;;;25.73;21.98;;;18.30;99.90;;;;;;5068036;28;20036;-67
2021/09/27 03:37:09;;;;;;;24.73;20.50;;;18.30;99.90;;;;;;5066063;28;20466;-66
2021/09/27 03:39:39;;;;;;;26.33;21.42;;;18.30;99.90;;;;;;5065634;28;20050;-66
2021/09/27 03:42:08;;;;;;;32.75;26.05;;;18.30;99.90;;;;;;5067891;28;20090;-68
2021/09/27 03:44:44;;;;;;;28.52;23.33;;;18.30;99.90;;;;;;5064183;28;20431;-67
2021/09/27 03:47:47;;;;;;;27.50;21.67;;;18.30;99.90;;;;;;5066966;28;20032;-66
2021/09/27 03:50:32;;;;;;;26.38;21.95;;;18.30;99.90;;;;;;5060701;28;20048;-66
2021/09/27 03:53:11;;;;;;;28.73;23.45;;;18.30;99.90;;;;;;5065307;28;20081;-68
2021/09/27 03:56:02;;;;;;;29.13;22.45;;;18.30;99.90;;;;;;5064981;28;20043;-67
2021/09/27 03:58:40;;;;;;;25.80;21.57;;;18.40;99.90;;;;;;5065780;28;20029;-66
2021/09/27 04:01:23;;;;;;;27.52;22.95;;;18.30;99.90;;;;;;5062222;28;20040;-68
2021/09/27 04:04:29;;;;;;;24.52;21.73;;;18.30;99.90;;;;;;5063126;28;20055;-66
2021/09/27 04:07:33;;;;;;;23.40;19.63;;;18.40;99.90;;;;;;5063893;28;20039;-67
2021/09/27 04:10:14;;;;;;;21.80;18.58;;;18.30;99.90;;;;;;5041638;28;20038;-67
2021/09/27 04:12:45;;;;;;;;;;;18.30;99.90;;;;;;5045541;28;20119;-67
2021/09/27 04:15:30;;;;;;;;;;;18.30;99.90;;;;;;5058669;28;19909;-67
2021/09/27 04:18:04;;;;;;;25.67;20.52;;;18.30;99.90;;;;;;5063475;28;19951;-67
2021/09/27 04:20:56;;;;;;;22.08;18.35;;;18.30;99.90;;;;;;5063558;28;20178;-68
2021/09/27 04:24:00;;;;;;;23.38;19.92;;;18.30;99.90;;;;;;5065806;28;20028;-67
2021/09/27 04:26:44;;;;;;;27.77;22.35;;;18.40;99.90;;;;;;5064604;28;20068;-66
2021/09/27 04:29:22;;;;;;;26.45;20.42;;;18.40;99.90;;;;;;5060422;28;20033;-68
2021/09/27 04:31:59;;;;;;;28.48;21.00;;;18.40;99.90;;;;;;5060241;28;20037;-67
2021/09/27 04:34:52;;;;;;;27.90;21.98;;;18.30;99.90;;;;;;5061702;28;20028;-67
2021/09/27 04:37:18;;;;;;;25.60;21.70;;;18.30;99.90;;;;;;5064641;28;20020;-67
2021/09/27 04:39:46;;;;;;;25.77;20.73;;;18.30;99.90;;;;;;5063972;28;20115;-69
2021/09/27 04:42:24;;;;;;;24.48;21.65;;;18.30;99.90;;;;;;5061929;28;20029;-68
2021/09/27 04:44:53;;;;;;;25.15;20.80;;;18.30;99.90;;;;;;5057779;28;20032;-68
2021/09/27 04:47:21;;;;;;;28.65;21.35;;;18.30;99.90;;;;;;5065761;28;20029;-69
2021/09/27 04:49:57;;;;;;;22.13;18.45;;;18.30;99.90;;;;;;5063085;28;20036;-68
2021/09/27 04:53:03;;;;;;;20.77;17.60;;;18.30;99.90;;;;;;5060663;28;20104;-68
2021/09/27 04:55:56;;;;;;;18.88;16.33;;;18.40;99.90;;;;;;5060743;28;20033;-68
2021/09/27 04:58:58;;;;;;;19.98;17.23;;;18.40;99.90;;;;;;5063120;28;20044;-68
2021/09/27 05:01:46;;;;;;;20.88;17.17;;;18.40;99.90;;;;;;5055918;28;20036;-69
2021/09/27 05:04:19;;;;;;;18.60;16.13;;;18.40;99.90;;;;;;5062192;28;20097;-71
2021/09/27 05:06:50;;;;;;;20.25;16.65;;;18.40;99.90;;;;;;5057192;28;20055;-69
2021/09/27 05:09:39;;;;;;;22.38;16.48;;;18.40;99.90;;;;;;5057069;28;20072;-69
2021/09/27 05:12:23;;;;;;;18.88;16.63;;;18.40;99.90;;;;;;5056030;28;20040;-66
2021/09/27 05:15:15;;;;;;;18.10;15.43;;;18.30;99.90;;;;;;5058737;28;20410;-67
2021/09/27 05:17:41;;;;;;;19.17;15.70;;;18.30;99.90;;;;;;5064059;28;20045;-67
2021/09/27 05:20:44;;;;;;;23.25;17.30;;;18.30;99.90;;;;;;5061891;28;20089;-67
2021/09/27 05:23:33;;;;;;;19.58;16.60;;;18.30;99.90;;;;;;5059655;28;20028;-67
2021/09/27 05:26:17;;;;;;;24.90;18.92;;;18.30;99.90;;;;;;5065379;28;20060;-67
2021/09/27 05:29:08;;;;;;;20.13;17.58;;;18.20;99.90;;;;;;5065214;28;20028;-66
2021/09/27 05:32:01;;;;;;;27.67;21.88;;;18.20;99.90;;;;;;5060341;28;20024;-67
2021/09/27 05:34:52;;;;;;;27.67;22.05;;;18.10;99.90;;;;;;5059719;28;20402;-65
2021/09/27 05:37:28;;;;;;;24.90;18.80;;;18.10;99.90;;;;;;5066015;28;20034;-66
2021/09/27 05:39:59;;;;;;;22.20;19.05;;;18.00;99.90;;;;;;5063693;28;20032;-66
2021/09/27 05:42:36;;;;;;;;;;;18.00;99.90;;;;;;5065898;28;20033;-66
2021/09/27 05:45:02;;;;;;;23.80;18.67;;;18.00;99.90;;;;;;5066675;28;19961;-66
2021/09/27 05:47:53;;;;;;;22.45;18.92;;;18.00;99.90;;;;;;5054535;28;20033;-66
2021/09/27 05:50:29;;;;;;;26.67;20.50;;;18.00;99.90;;;;;;5062113;28;20098;-65
2021/09/27 05:53:28;;;;;;;23.23;19.27;;;18.00;99.90;;;;;;5057230;28;20103;-66
2021/09/27 05:56:15;;;;;;;26.80;19.88;;;18.00;99.90;;;;;;5061364;28;20036;-66
2021/09/27 05:58:54;;;;;;;24.48;20.70;;;18.00;99.90;;;;;;5066332;28;20036;-65
2021/09/27 06:01:38;;;;;;;25.35;20.48;;;18.00;99.90;;;;;;5059855;28;20040;-67
2021/09/27 06:04:45;;;;;;;27.85;22.05;;;18.00;99.90;;;;;;5057240;28;20043;-67
2021/09/27 06:07:48;;;;;;;25.95;20.67;;;18.10;99.90;;;;;;5060690;28;20116;-66
2021/09/27 06:10:37;;;;;;;32.00;23.58;;;18.10;99.90;;;;;;5058147;28;20071;-67
2021/09/27 06:13:24;;;;;;;25.67;21.23;;;18.10;99.90;;;;;;5053436;28;20043;-66
2021/09/27 06:15:52;;;;;;;27.90;21.27;;;18.10;99.90;;;;;;5057217;28;21113;-66
2021/09/27 06:18:36;;;;;;;23.58;20.90;;;18.10;99.90;;;;;;5057547;28;20471;-67
2021/09/27 06:21:21;;;;;;;26.77;21.75;;;18.10;99.90;;;;;;5055514;28;20490;-66
2021/09/27 06:24:05;;;;;;;25.98;20.75;;;18.10;99.90;;;;;;5059841;28;20033;-69
2021/09/27 06:26:36;;;;;;;25.48;20.95;;;18.10;99.90;;;;;;5063510;28;20519;-69
2021/09/27 06:29:19;;;;;;;27.30;21.70;;;18.10;99.90;;;;;;5063439;28;20086;-72
2021/09/27 06:32:09;;;;;;;29.45;22.52;;;18.10;99.90;;;;;;5064124;28;20059;-70
2021/09/27 06:34:49;;;;;;;29.13;23.02;;;18.00;99.90;;;;;;5063802;28;20031;-70
2021/09/27 06:37:21;;;;;;;27.67;21.47;;;18.10;99.90;;;;;;5064716;28;20024;-70
2021/09/27 06:39:48;;;;;;;28.42;22.13;;;18.10;99.90;;;;;;5064149;28;20129;-71
2021/09/27 06:42:14;;;;;;;26.45;20.48;;;18.10;99.90;;;;;;5064365;28;20044;-71
2021/09/27 06:44:43;;;;;;;31.48;24.17;;;18.10;99.90;;;;;;5065759;28;20037;-70
2021/09/27 06:47:09;;;;;;;35.47;24.83;;;18.10;99.90;;;;;;5064772;28;20545;-68
2021/09/27 06:49:35;;;;;;;32.40;23.38;;;18.10;99.90;;;;;;5067179;28;20021;-71
2021/09/27 06:52:00;;;;;;;30.02;23.75;;;18.10;99.90;;;;;;5065793;28;20021;-73
2021/09/27 06:54:26;;;;;;;32.28;24.45;;;18.10;99.90;;;;;;5058879;28;20025;-69
2021/09/27 06:56:53;;;;;;;29.05;22.88;;;18.10;99.90;;;;;;5057840;28;20024;-70
2021/09/27 06:59:20;;;;;;;31.17;23.73;;;18.10;99.90;;;;;;5057930;28;20406;-70
2021/09/27 07:01:47;;;;;;;32.65;24.77;;;18.10;99.90;;;;;;5061956;28;20033;-67
2021/09/27 07:04:13;;;;;;;31.92;24.30;;;18.10;99.90;;;;;;5059407;28;20079;-67
2021/09/27 07:06:39;;;;;;;35.28;24.45;;;18.10;99.90;;;;;;5058865;28;20119;-67
2021/09/27 07:09:05;;;;;;;28.27;23.55;;;18.10;99.90;;;;;;5051666;28;20100;-68
2021/09/27 07:11:31;;;;;;;31.65;23.85;;;18.20;99.90;;;;;;5052462;28;20063;-67
2021/09/27 07:13:56;;;;;;;32.50;23.38;;;18.20;99.90;;;;;;5051922;28;20131;-68
2021/09/27 07:16:22;;;;;;;35.60;27.00;;;18.20;99.90;;;;;;5055395;28;20090;-70
2021/09/27 07:18:48;;;;;;;30.08;23.20;;;18.30;99.90;;;;;;5057599;28;20060;-70
2021/09/27 07:21:14;;;;;;;34.53;24.92;;;18.20;99.90;;;;;;5056870;28;20028;-67
2021/09/27 07:23:40;;;;;;;30.77;23.35;;;18.30;99.90;;;;;;5057037;28;20090;-68
2021/09/27 07:26:08;;;;;;;40.33;27.50;;;18.30;99.90;;;;;;5056177;28;20090;-70
2021/09/27 07:28:34;;;;;;;31.98;24.88;;;18.30;99.90;;;;;;5058086;28;20040;-68
2021/09/27 07:31:00;;;;;;;32.83;24.73;;;18.30;99.90;;;;;;5058046;28;20039;-69
2021/09/27 07:33:27;;;;;;;36.35;24.98;;;18.30;99.90;;;;;;5056849;28;20021;-68
2021/09/27 07:35:54;;;;;;;36.78;26.73;;;18.20;99.90;;;;;;5051617;28;20490;-68
2021/09/27 07:38:20;;;;;;;30.95;24.52;;;18.20;99.90;;;;;;5055227;28;20028;-69
2021/09/27 07:40:46;;;;;;;39.13;27.15;;;18.20;99.90;;;;;;5053833;28;20032;-68
2021/09/27 07:43:12;;;;;;;36.88;26.73;;;18.30;99.90;;;;;;5055207;28;20020;-68
2021/09/27 07:45:38;;;;;;;33.10;23.88;;;18.30;99.90;;;;;;5058903;28;20041;-69
2021/09/27 07:48:07;;;;;;;31.83;23.33;;;18.30;99.90;;;;;;5055745;28;20128;-69
2021/09/27 07:50:33;;;;;;;29.92;24.13;;;18.30;99.90;;;;;;5054549;28;20024;-69
2021/09/27 07:53:00;;;;;;;36.55;26.58;;;18.40;99.90;;;;;;5058799;28;20484;-70
2021/09/27 07:55:26;;;;;;;36.67;25.85;;;18.40;99.90;;;;;;5062297;28;20022;-70
2021/09/27 07:57:52;;;;;;;33.22;24.05;;;18.50;99.90;;;;;;5062691;28;20048;-69
2021/09/27 08:00:18;;;;;;;35.20;24.05;;;18.60;99.90;;;;;;5063577;28;20071;-69
2021/09/27 08:02:45;;;;;;;35.58;24.80;;;18.60;99.90;;;;;;5064025;28;20032;-69
2021/09/27 08:05:14;;;;;;;37.13;25.08;;;18.60;99.90;;;;;;5064145;28;20032;-70
2021/09/27 08:07:40;;;;;;;33.70;24.52;;;18.60;99.90;;;;;;5064210;28;20028;-69
2021/09/27 08:10:08;;;;;;;31.63;23.10;;;18.60;99.90;;;;;;5066337;28;20032;-69
2021/09/27 08:12:36;;;;;;;37.55;27.25;;;18.60;99.90;;;;;;5066593;28;20078;-69
2021/09/27 08:15:06;;;;;;;37.75;26.85;;;18.60;99.90;;;;;;5066352;28;20025;-68
2021/09/27 08:17:32;;;;;;;35.35;24.85;;;18.60;99.90;;;;;;5068747;28;20024;-69
2021/09/27 08:20:00;;;;;;;38.42;27.20;;;18.60;99.90;;;;;;5061674;28;20025;-69
2021/09/27 08:22:26;;;;;;;30.05;23.52;;;18.50;99.90;;;;;;5066655;28;20033;-69
2021/09/27 08:24:52;;;;;;;33.60;23.50;;;18.60;99.90;;;;;;5067995;28;20070;-70
2021/09/27 08:27:18;;;;;;;35.95;27.60;;;18.60;99.90;;;;;;5063420;28;20378;-69
2021/09/27 08:29:43;;;;;;;32.70;24.67;;;18.50;99.90;;;;;;5061808;28;20108;-70
2021/09/27 08:32:09;;;;;;;36.63;25.83;;;18.50;99.90;;;;;;5065960;28;20104;-69
2021/09/27 08:34:35;;;;;;;36.45;25.85;;;18.50;99.90;;;;;;5065749;28;21017;-69
2021/09/27 08:37:01;;;;;;;37.35;27.35;;;18.50;99.90;;;;;;5061646;28;20028;-69
2021/09/27 08:39:27;;;;;;;34.03;24.67;;;18.50;99.90;;;;;;5063812;28;20037;-70
2021/09/27 08:41:59;;;;;;;31.40;23.90;;;18.50;99.90;;;;;;5063443;28;20033;-70
2021/09/27 08:44:31;;;;;;;38.67;27.30;;;18.50;99.90;;;;;;5064667;28;20039;-69
2021/09/27 08:47:04;;;;;;;32.80;23.23;;;18.40;99.90;;;;;;5066348;28;20547;-69
2021/09/27 08:49:40;;;;;;;31.65;23.55;;;18.50;99.90;;;;;;5065284;28;20037;-68
2021/09/27 08:52:08;;;;;;;34.03;24.63;;;18.50;99.90;;;;;;5068852;28;20096;-69
2021/09/27 08:54:35;;;;;;;28.90;22.13;;;18.50;99.90;;;;;;5070311;28;20033;-69
2021/09/27 08:57:26;;;;;;;35.75;24.48;;;18.60;99.90;;;;;;5069127;28;20138;-69
2021/09/27 08:59:51;;;;;;;;;;;18.60;99.90;;;;;;5070013;28;20028;-70
2021/09/27 09:02:36;;;;;;;29.35;21.77;;;18.60;99.90;;;;;;5069417;28;19961;-69
2021/09/27 09:05:23;;;;;;;24.45;18.90;;;18.70;99.90;;;;;;5071084;28;20036;-70
2021/09/27 09:08:04;;;;;;;34.65;22.60;;;18.80;99.90;;;;;;5064927;28;20033;-68
2021/09/27 09:10:43;;;;;;;31.70;22.08;;;18.80;99.90;;;;;;5067782;28;20449;-70
2021/09/27 09:13:17;;;;;;;30.63;22.20;;;18.90;99.90;;;;;;5071804;28;20067;-69
2021/09/27 09:15:47;;;;;;;29.08;22.02;;;19.00;99.90;;;;;;5068337;28;20127;-68
2021/09/27 09:18:19;;;;;;;32.08;23.52;;;19.10;99.90;;;;;;5068061;28;20078;-68
2021/09/27 09:20:58;;;;;;;25.63;18.98;;;19.10;99.90;;;;;;5066928;28;20020;-68
2021/09/27 09:23:31;;;;;;;26.17;19.80;;;19.20;99.90;;;;;;5067187;28;20074;-71
2021/09/27 09:26:01;;;;;;;28.58;20.83;;;19.30;99.90;;;;;;5067256;28;20100;-68
2021/09/27 09:28:27;;;;;;;37.10;23.42;;;19.30;99.90;;;;;;5064037;28;20540;-69
2021/09/27 09:31:19;;;;;;;39.58;23.15;;;19.40;99.90;;;;;;5069226;28;20024;-71
2021/09/27 09:33:50;;;;;;;36.97;20.45;;;19.40;99.90;;;;;;5070037;28;20029;-70
2021/09/27 09:36:39;;;;;;;34.55;20.65;;;19.50;99.90;;;;;;5065114;28;20024;-69
2021/09/27 09:39:20;;;;;;;48.17;23.95;;;19.60;99.90;;;;;;5065358;28;20048;-69
2021/09/27 09:41:49;;;;;;;33.38;22.02;;;19.70;99.90;;;;;;5067690;28;20103;-70
2021/09/27 09:44:33;;;;;;;38.80;23.98;;;19.70;99.90;;;;;;5066331;28;20024;-70
2021/09/27 09:47:20;;;;;;;29.05;20.40;;;19.90;99.90;;;;;;5070036;28;20497;-70
2021/09/27 09:49:48;;;;;;;30.52;21.40;;;20.00;99.90;;;;;;5069382;28;20029;-70
2021/09/27 09:52:24;;;;;;;29.15;21.92;;;20.00;99.90;;;;;;5066938;28;20039;-69
2021/09/27 09:54:51;;;;;;;23.85;19.60;;;19.90;99.90;;;;;;5067097;28;20119;-70
2021/09/27 09:57:29;;;;;;;34.28;22.50;;;19.90;99.90;;;;;;5067769;28;20044;-70
2021/09/27 10:00:06;;;;;;;32.03;22.30;;;20.00;99.90;;;;;;5069218;28;20051;-70
2021/09/27 10:02:36;;;;;;;33.35;23.70;;;20.10;99.90;;;;;;5064533;28;20029;-70
2021/09/27 10:05:14;;;;;;;25.23;18.55;;;20.10;99.90;;;;;;5067206;28;20054;-70
2021/09/27 10:07:48;;;;;;;26.20;19.50;;;20.20;99.90;;;;;;5064917;28;20040;-70
2021/09/27 10:10:29;;;;;;;29.00;21.70;;;20.30;99.90;;;;;;5069165;28;20032;-70
2021/09/27 10:12:55;;;;;;;35.72;24.13;;;20.20;99.90;;;;;;5066784;28;20020;-69
2021/09/27 10:15:26;;;;;;;31.88;21.67;;;20.30;99.90;;;;;;5066177;28;20033;-69
2021/09/27 10:18:23;;;;;;;31.65;22.05;;;20.40;99.90;;;;;;5066474;28;20052;-70
2021/09/27 10:21:10;;;;;;;29.48;22.17;;;20.60;99.90;;;;;;5058138;28;20922;-70
2021/09/27 10:23:40;;;;;;;30.48;21.90;;;20.70;99.90;;;;;;5068103;28;20143;-70
2021/09/27 10:26:27;;;;;;;29.75;21.25;;;20.80;99.90;;;;;;5065453;28;20077;-70
2021/09/27 10:28:58;;;;;;;26.45;19.48;;;20.80;99.90;;;;;;5060701;28;20424;-70
2021/09/27 10:31:25;;;;;;;30.38;22.50;;;20.80;99.90;;;;;;5066743;28;20498;-70
2021/09/27 10:33:56;;;;;;;30.15;21.70;;;20.80;99.90;;;;;;5066369;28;20021;-70
2021/09/27 10:36:31;;;;;;;31.60;22.75;;;20.80;99.90;;;;;;5066730;28;20028;-70
2021/09/27 10:38:59;;;;;;;30.83;21.83;;;20.70;99.90;;;;;;5063446;28;20028;-69
2021/09/27 10:41:35;;;;;;;25.48;18.98;;;20.50;99.90;;;;;;5064557;28;20036;-70
2021/09/27 10:44:26;;;;;;;30.23;22.20;;;20.60;99.90;;;;;;5066806;28;20047;-70
2021/09/27 10:46:54;;;;;;;30.50;22.35;;;20.60;99.90;;;;;;5073975;28;20494;-70
2021/09/27 10:49:29;;;;;;;28.70;20.27;;;20.50;99.90;;;;;;5063483;28;20113;-70
2021/09/27 10:52:32;;;;;;;24.38;18.05;;;20.60;99.90;;;;;;5060951;28;20032;-70
2021/09/27 10:55:18;;;;;;;27.38;20.35;;;21.00;99.90;;;;;;5049265;28;20060;-70
2021/09/27 10:57:56;;;;;;;24.25;19.33;;;21.40;99.90;;;;;;5057708;28;20120;-70
2021/09/27 11:00:34;;;;;;;31.10;21.60;;;21.70;99.40;;;;;;5060800;28;20037;-70
2021/09/27 11:03:16;;;;;;;23.73;18.52;;;21.80;98.70;;;;;;5063617;28;20053;-70
2021/09/27 11:06:12;;;;;;;25.23;19.42;;;21.50;99.00;;;;;;5060109;28;20028;-70
2021/09/27 11:08:53;;;;;;;23.20;17.23;;;21.80;99.60;;;;;;5059955;28;20128;-70
2021/09/27 11:11:28;;;;;;;20.00;15.05;;;23.20;97.60;;;;;;5063351;28;20508;-70
2021/09/27 11:13:59;;;;;;;16.80;13.73;;;24.50;94.50;;;;;;5062222;28;20020;-70
2021/09/27 11:16:27;;;;;;;;;;;25.30;91.30;;;;;;5061405;28;20431;-70
2021/09/27 11:19:26;;;;;;;16.98;13.50;;;25.10;90.80;;;;;;5060126;28;20409;-71
2021/09/27 11:21:53;;;;;;;19.25;14.95;;;24.70;92.10;;;;;;5058840;28;20530;-70
2021/09/27 11:24:18;;;;;;;21.73;15.70;;;24.30;92.30;;;;;;5062911;28;20024;-70
2021/09/27 11:27:00;;;;;;;23.85;16.17;;;23.90;92.50;;;;;;5062302;28;20147;-70
2021/09/27 11:29:29;;;;;;;26.58;14.65;;;23.40;93.70;;;;;;5054756;28;20039;-71
2021/09/27 11:32:14;;;;;;;20.88;14.52;;;23.20;94.10;;;;;;5061663;28;20023;-70
2021/09/27 11:34:57;;;;;;;20.00;16.10;;;23.00;95.20;;;;;;5063938;28;20042;-71
2021/09/27 11:37:31;;;;;;;17.55;14.27;;;23.00;94.90;;;;;;5058922;28;20064;-72
2021/09/27 11:40:06;;;;;;;16.98;14.00;;;23.00;94.90;;;;;;5064764;28;20635;-72
2021/09/27 11:42:55;;;;;;;17.05;14.57;;;23.00;94.60;;;;;;5065900;28;20097;-72
2021/09/27 11:45:41;;;;;;;17.00;14.20;;;23.00;94.20;;;;;;5058523;28;20020;-71
2021/09/27 11:48:31;;;;;;;17.35;13.90;;;22.90;94.40;;;;;;5063652;28;20490;-71
2021/09/27 11:51:25;;;;;;;17.55;13.00;;;23.00;94.80;;;;;;5059402;28;20033;-71
2021/09/27 11:54:10;;;;;;;17.52;14.52;;;23.00;94.30;;;;;;5059099;28;20480;-71
2021/09/27 11:56:47;;;;;;;297.98;212.13;;;22.90;94.70;;;;;;5061673;28;20466;-71
2021/09/27 11:59:29;;;;;;;74.20;51.25;;;22.90;95.20;;;;;;5056336;28;20029;-71
2021/09/27 12:02:07;;;;;;;80.80;60.88;;;22.90;94.90;;;;;;5059749;28;20038;-71
2021/09/27 12:05:10;;;;;;;84.13;59.78;;;22.90;94.90;;;;;;5060280;28;20033;-71
2021/09/27 12:07:48;;;;;;;22.40;16.20;;;22.80;94.70;;;;;;5059488;28;20082;-71
2021/09/27 12:10:16;;;;;;;16.70;13.75;;;22.70;94.30;;;;;;5060441;28;20090;-72
2021/09/27 12:13:06;;;;;;;16.25;13.90;;;22.70;95.10;;;;;;5064487;28;20074;-71
2021/09/27 12:15:39;;;;;;;16.50;13.38;;;22.80;95.00;;;;;;5059899;28;20020;-72
2021/09/27 12:18:05;;;;;;;14.23;12.30;;;22.80;94.30;;;;;;5063074;28;20536;-71
2021/09/27 12:20:39;;;;;;;15.75;12.55;;;22.90;94.40;;;;;;5056111;28;20079;-70
2021/09/27 12:23:09;;;;;;;16.83;13.38;;;22.80;93.90;;;;;;5057251;28;20033;-71
2021/09/27 12:25:38;;;;;;;13.68;12.27;;;22.70;94.10;;;;;;5063545;28;20507;-70
2021/09/27 12:28:07;;;;;;;13.35;12.07;;;22.60;94.20;;;;;;5058290;28;20461;-69
2021/09/27 12:30:53;;;;;;;14.45;12.18;;;22.50;94.70;;;;;;5060590;28;20443;-69
2021/09/27 12:33:26;;;;;;;17.98;12.23;;;22.50;94.80;;;;;;5061714;28;20040;-70
2021/09/27 12:36:09;;;;;;;13.00;11.68;;;22.50;94.20;;;;;;5059583;28;20106;-69
2021/09/27 12:38:44;;;;;;;14.15;12.40;;;22.40;94.50;;;;;;5056497;28;20497;-70
2021/09/27 12:41:10;;;;;;;15.80;12.73;;;22.30;94.70;;;;;;5054238;28;20402;-69
2021/09/27 12:43:37;;;;;;;16.20;13.25;;;22.30;94.60;;;;;;5061265;28;20025;-70
2021/09/27 12:46:21;;;;;;;13.88;11.85;;;22.20;94.30;;;;;;5053316;28;20021;-70
2021/09/27 12:48:57;;;;;;;13.77;12.07;;;22.20;94.80;;;;;;5059337;28;20503;-70
2021/09/27 12:51:49;;;;;;;16.83;12.43;;;22.10;94.80;;;;;;5063731;28;20103;-74
2021/09/27 12:54:29;;;;;;;12.93;11.32;;;22.20;95.00;;;;;;5056670;28;20022;-69
2021/09/27 12:56:57;;;;;;;16.48;11.48;;;22.20;94.20;;;;;;5057076;28;20078;-70
2021/09/27 12:59:25;;;;;;;29.45;12.95;;;22.20;93.80;;;;;;5057796;28;20032;-70
2021/09/27 13:02:12;;;;;;;19.25;12.00;;;22.20;93.80;;;;;;5060658;28;20025;-69
2021/09/27 13:04:53;;;;;;;17.65;11.52;;;22.10;94.30;;;;;;5065841;28;20479;-70
2021/09/27 13:07:20;;;;;;;;;;;21.90;94.60;;;;;;5062849;28;20460;-69
2021/09/27 13:10:06;;;;;;;14.95;11.60;;;21.90;95.10;;;;;;5061195;28;20764;-70
2021/09/27 13:12:39;;;;;;;15.32;11.32;;;21.90;94.90;;;;;;5063858;28;20094;-70
2021/09/27 13:15:14;;;;;;;16.83;11.85;;;21.80;94.90;;;;;;5057986;28;20024;-69
2021/09/27 13:18:05;;;;;;;13.63;11.23;;;21.60;94.90;;;;;;5061792;28;20100;-70